createdAt,value
2022-10-10T00:00:06.918Z,0.00
2022-10-10T00:01:07.156Z,0.00
2022-10-10T00:02:07.387Z,0.00
2022-10-10T00:03:07.632Z,0.00
2022-10-10T00:04:07.835Z,0.00
2022-10-10T00:05:08.050Z,0.00
2022-10-10T00:06:08.292Z,0.00
2022-10-10T00:07:08.503Z,0.00
2022-10-10T00:08:08.723Z,0.00
2022-10-10T00:09:08.927Z,0.00
2022-10-10T00:10:09.141Z,0.00
2022-10-10T00:11:09.398Z,0.00
2022-10-10T00:12:09.601Z,0.00
2022-10-10T00:13:09.802Z,0.00
2022-10-10T00:14:10.010Z,0.00
2022-10-10T00:15:10.268Z,0.00
2022-10-10T00:16:10.528Z,0.00
2022-10-10T00:17:10.752Z,0.00
2022-10-10T00:18:10.954Z,0.00
2022-10-10T00:19:11.168Z,0.00
2022-10-10T00:20:11.402Z,0.00
2022-10-10T00:21:11.643Z,0.00
2022-10-10T00:22:11.856Z,0.00
2022-10-10T00:23:12.066Z,0.00
2022-10-10T00:24:12.260Z,0.00
2022-10-10T00:25:12.462Z,0.00
2022-10-10T00:26:17.734Z,0.00
2022-10-10T00:27:13.868Z,0.00
2022-10-10T00:28:13.158Z,0.00
2022-10-10T00:29:13.227Z,0.00
2022-10-10T00:30:20.452Z,0.00
2022-10-10T00:31:15.303Z,0.00
2022-10-10T00:32:15.519Z,0.00
2022-10-10T00:33:14.055Z,0.00
2022-10-10T00:34:14.261Z,0.00
2022-10-10T00:35:14.461Z,0.00
2022-10-10T00:36:14.695Z,0.00
2022-10-10T00:37:14.898Z,0.00
2022-10-10T00:38:15.112Z,0.00
2022-10-10T00:39:15.319Z,0.00
2022-10-10T00:40:15.525Z,0.00
2022-10-10T00:41:15.749Z,0.00
2022-10-10T00:42:15.959Z,0.00
2022-10-10T00:43:16.158Z,0.00
2022-10-10T00:44:16.367Z,0.00
2022-10-10T00:45:16.575Z,0.00
2022-10-10T00:46:16.806Z,0.00
2022-10-10T00:47:17.013Z,0.00
2022-10-10T00:48:17.227Z,0.00
2022-10-10T00:49:17.437Z,0.00
2022-10-10T00:50:17.641Z,0.00
2022-10-10T00:51:17.872Z,0.00
2022-10-10T00:52:18.075Z,0.00
2022-10-10T00:53:18.269Z,0.00
2022-10-10T00:54:18.486Z,0.00
2022-10-10T00:55:18.692Z,0.00
2022-10-10T00:56:18.922Z,0.00
2022-10-10T00:57:19.126Z,0.00
2022-10-10T00:58:19.326Z,0.00
2022-10-10T00:59:19.539Z,0.00
2022-10-10T01:00:19.747Z,0.00
2022-10-10T01:01:20.019Z,0.00
2022-10-10T01:02:20.213Z,0.00
2022-10-10T01:03:20.427Z,0.00
2022-10-10T01:04:20.639Z,0.00
2022-10-10T01:05:20.843Z,0.00
2022-10-10T01:06:21.063Z,0.00
2022-10-10T01:07:21.271Z,0.00
2022-10-10T01:08:21.476Z,0.00
2022-10-10T01:09:21.697Z,0.00
2022-10-10T01:10:21.894Z,0.00
2022-10-10T01:11:22.137Z,0.00
2022-10-10T01:12:22.332Z,0.00
2022-10-10T01:13:22.536Z,0.00
2022-10-10T01:14:22.750Z,0.00
2022-10-10T01:15:22.949Z,0.00
2022-10-10T01:16:23.170Z,0.00
2022-10-10T01:17:23.375Z,0.00
2022-10-10T01:18:23.572Z,0.00
2022-10-10T01:19:23.791Z,0.00
2022-10-10T01:20:23.999Z,0.00
2022-10-10T01:21:24.220Z,0.00
2022-10-10T01:22:24.430Z,0.00
2022-10-10T01:23:24.641Z,0.00
2022-10-10T01:24:24.852Z,0.00
2022-10-10T01:25:25.055Z,0.00
2022-10-10T01:26:25.278Z,0.00
2022-10-10T01:27:31.037Z,0.00
2022-10-10T01:28:26.818Z,0.00
2022-10-10T01:29:26.025Z,0.00
2022-10-10T01:30:26.244Z,0.00
2022-10-10T01:31:26.478Z,0.00
2022-10-10T01:32:26.691Z,0.00
2022-10-10T01:33:26.907Z,0.00
2022-10-10T01:34:27.117Z,0.00
2022-10-10T01:35:27.325Z,0.00
2022-10-10T01:36:27.545Z,0.00
2022-10-10T01:37:27.746Z,0.00
2022-10-10T01:38:27.945Z,0.00
2022-10-10T01:39:28.153Z,0.00
2022-10-10T01:40:28.370Z,0.00
2022-10-10T01:41:28.588Z,0.00
2022-10-10T01:42:28.794Z,0.00
2022-10-10T01:43:28.993Z,0.00
2022-10-10T01:44:29.201Z,0.00
2022-10-10T01:45:29.407Z,0.00
2022-10-10T01:46:29.636Z,0.00
2022-10-10T01:47:29.846Z,0.00
2022-10-10T01:48:30.064Z,0.00
2022-10-10T01:49:30.285Z,0.00
2022-10-10T01:50:30.500Z,0.00
2022-10-10T01:51:30.716Z,0.00
2022-10-10T01:52:30.936Z,0.00
2022-10-10T01:53:31.139Z,0.00
2022-10-10T01:54:31.350Z,0.00
2022-10-10T01:55:31.553Z,0.00
2022-10-10T01:56:31.761Z,0.00
2022-10-10T01:57:31.971Z,0.00
2022-10-10T01:58:32.185Z,0.00
2022-10-10T01:59:32.404Z,0.00
2022-10-10T02:00:32.632Z,0.00
2022-10-10T02:01:32.839Z,0.00
2022-10-10T02:02:33.042Z,0.00
2022-10-10T02:03:33.239Z,0.00
2022-10-10T02:04:33.435Z,0.00
2022-10-10T02:05:33.669Z,0.00
2022-10-10T02:06:33.884Z,0.00
2022-10-10T02:07:34.113Z,0.00
2022-10-10T02:08:34.319Z,0.00
2022-10-10T02:09:34.516Z,0.00
2022-10-10T02:10:34.728Z,0.00
2022-10-10T02:11:34.939Z,0.00
2022-10-10T02:12:35.159Z,0.00
2022-10-10T02:13:35.356Z,0.00
2022-10-10T02:14:35.566Z,0.00
2022-10-10T02:15:35.799Z,0.00
2022-10-10T02:16:36.034Z,0.00
2022-10-10T02:17:36.250Z,0.00
2022-10-10T02:18:36.453Z,0.00
2022-10-10T02:19:36.672Z,0.00
2022-10-10T02:20:36.885Z,0.00
2022-10-10T02:21:37.088Z,0.00
2022-10-10T02:22:37.294Z,0.00
2022-10-10T02:23:37.493Z,0.00
2022-10-10T02:24:37.696Z,0.00
2022-10-10T02:25:37.902Z,0.00
2022-10-10T02:26:38.132Z,0.00
2022-10-10T02:27:38.335Z,0.00
2022-10-10T02:28:38.590Z,0.00
2022-10-10T02:29:38.796Z,0.00
2022-10-10T02:30:39.001Z,0.00
2022-10-10T02:31:39.222Z,0.00
2022-10-10T02:32:39.431Z,0.00
2022-10-10T02:33:39.641Z,0.00
2022-10-10T02:34:39.861Z,0.00
2022-10-10T02:35:40.058Z,0.00
2022-10-10T02:36:40.280Z,0.00
2022-10-10T02:37:40.489Z,0.00
2022-10-10T02:38:40.697Z,0.00
2022-10-10T02:39:40.908Z,0.00
2022-10-10T02:40:41.112Z,0.00
2022-10-10T02:41:41.346Z,0.00
2022-10-10T02:42:41.572Z,0.00
2022-10-10T02:43:41.779Z,0.00
2022-10-10T02:44:41.994Z,0.00
2022-10-10T02:45:42.196Z,0.00
2022-10-10T02:46:42.448Z,0.00
2022-10-10T02:47:42.656Z,0.00
2022-10-10T02:48:42.862Z,0.00
2022-10-10T02:49:43.071Z,0.00
2022-10-10T02:50:43.279Z,0.00
2022-10-10T02:51:43.515Z,0.00
2022-10-10T02:52:43.737Z,0.00
2022-10-10T02:53:43.937Z,0.00
2022-10-10T02:54:44.167Z,0.00
2022-10-10T02:55:44.372Z,0.00
2022-10-10T02:56:44.611Z,0.00
2022-10-10T02:57:44.818Z,0.00
2022-10-10T02:58:45.024Z,0.00
2022-10-10T02:59:45.232Z,0.00
2022-10-10T03:00:45.488Z,0.00
2022-10-10T03:01:45.703Z,0.00
2022-10-10T03:02:45.912Z,0.00
2022-10-10T03:03:46.122Z,0.00
2022-10-10T03:04:46.339Z,0.00
2022-10-10T03:05:47.100Z,0.00
2022-10-10T03:06:46.801Z,0.00
2022-10-10T03:07:47.002Z,0.00
2022-10-10T03:08:47.209Z,0.00
2022-10-10T03:09:47.410Z,0.00
2022-10-10T03:10:47.620Z,0.00
2022-10-10T03:11:47.854Z,0.00
2022-10-10T03:12:48.309Z,0.00
2022-10-10T03:13:48.270Z,0.00
2022-10-10T03:14:48.479Z,0.00
2022-10-10T03:15:48.698Z,0.00
2022-10-10T03:16:48.916Z,0.00
2022-10-10T03:17:49.120Z,0.00
2022-10-10T03:18:49.333Z,0.00
2022-10-10T03:19:49.545Z,0.00
2022-10-10T03:20:49.752Z,0.00
2022-10-10T03:21:49.976Z,0.00
2022-10-10T03:22:50.408Z,0.00
2022-10-10T03:23:50.428Z,0.00
2022-10-10T03:24:50.647Z,0.00
2022-10-10T03:25:50.865Z,0.00
2022-10-10T03:26:51.107Z,0.00
2022-10-10T03:27:51.310Z,0.00
2022-10-10T03:28:51.523Z,0.00
2022-10-10T03:29:51.740Z,0.00
2022-10-10T03:30:51.956Z,0.00
2022-10-10T03:31:52.183Z,0.00
2022-10-10T03:32:52.989Z,0.00
2022-10-10T03:33:52.672Z,0.00
2022-10-10T03:34:52.873Z,0.00
2022-10-10T03:35:53.092Z,0.00
2022-10-10T03:36:53.329Z,0.00
2022-10-10T03:37:53.535Z,0.00
2022-10-10T03:38:53.759Z,0.00
2022-10-10T03:39:53.967Z,0.00
2022-10-10T03:40:54.172Z,0.00
2022-10-10T03:41:54.414Z,0.00
2022-10-10T03:42:54.633Z,0.00
2022-10-10T03:43:54.842Z,0.00
2022-10-10T03:44:55.055Z,0.00
2022-10-10T03:45:55.382Z,0.00
2022-10-10T03:46:55.495Z,0.00
2022-10-10T03:47:55.712Z,0.00
2022-10-10T03:48:55.941Z,0.00
2022-10-10T03:49:56.155Z,0.00
2022-10-10T03:50:56.362Z,0.00
2022-10-10T03:51:56.599Z,0.00
2022-10-10T03:52:56.812Z,0.00
2022-10-10T03:53:57.031Z,0.00
2022-10-10T03:54:57.236Z,0.00
2022-10-10T03:55:57.471Z,0.00
2022-10-10T03:56:57.710Z,0.00
2022-10-10T03:57:57.929Z,0.00
2022-10-10T03:58:58.152Z,0.00
2022-10-10T03:59:58.369Z,0.00
2022-10-10T04:00:58.663Z,0.00
2022-10-10T04:01:58.835Z,0.00
2022-10-10T04:02:58.986Z,0.00
2022-10-10T04:03:59.242Z,0.00
2022-10-10T04:04:59.512Z,0.00
2022-10-10T04:05:59.673Z,0.00
2022-10-10T04:06:59.929Z,0.00
2022-10-10T04:08:00.154Z,0.00
2022-10-10T04:09:00.381Z,0.00
2022-10-10T04:10:00.595Z,0.00
2022-10-10T04:11:00.802Z,0.00
2022-10-10T04:12:01.026Z,0.00
2022-10-10T04:13:01.245Z,0.00
2022-10-10T04:14:01.467Z,0.00
2022-10-10T04:15:01.673Z,0.00
2022-10-10T04:16:01.883Z,0.00
2022-10-10T04:17:03.286Z,0.00
2022-10-10T04:18:02.370Z,0.00
2022-10-10T04:19:02.582Z,0.00
2022-10-10T04:20:02.810Z,0.00
2022-10-10T04:21:03.022Z,0.00
2022-10-10T04:22:03.260Z,0.00
2022-10-10T04:23:03.479Z,0.00
2022-10-10T04:24:03.715Z,0.00
2022-10-10T04:25:03.931Z,0.00
2022-10-10T04:26:04.171Z,0.00
2022-10-10T04:27:04.406Z,0.00
2022-10-10T04:28:04.655Z,0.00
2022-10-10T04:29:04.901Z,0.00
2022-10-10T04:30:05.125Z,0.00
2022-10-10T04:31:05.340Z,0.00
2022-10-10T04:32:05.580Z,0.00
2022-10-10T04:33:05.799Z,0.00
2022-10-10T04:34:06.042Z,0.00
2022-10-10T04:35:06.269Z,0.00
2022-10-10T04:36:06.501Z,0.00
2022-10-10T04:37:06.740Z,0.00
2022-10-10T04:38:06.966Z,0.00
2022-10-10T04:39:07.202Z,0.00
2022-10-10T04:40:07.436Z,0.00
2022-10-10T04:41:07.664Z,0.00
2022-10-10T04:42:07.891Z,0.00
2022-10-10T04:43:08.116Z,0.00
2022-10-10T04:44:08.330Z,0.00
2022-10-10T04:45:08.555Z,0.00
2022-10-10T04:46:09.272Z,0.00
2022-10-10T04:47:09.069Z,0.00
2022-10-10T04:48:09.306Z,0.00
2022-10-10T04:49:12.473Z,0.00
2022-10-10T04:50:09.702Z,4.00
2022-10-10T04:51:10.886Z,0.00
2022-10-10T04:52:10.094Z,0.00
2022-10-10T04:53:10.330Z,4.00
2022-10-10T04:54:10.568Z,0.00
2022-10-10T04:55:10.821Z,4.00
2022-10-10T04:56:11.062Z,4.00
2022-10-10T04:57:11.324Z,4.00
2022-10-10T04:58:11.573Z,8.00
2022-10-10T04:59:11.817Z,8.00
2022-10-10T05:00:12.058Z,8.00
2022-10-10T05:01:12.435Z,8.00
2022-10-10T05:02:12.493Z,12.00
2022-10-10T05:03:12.741Z,12.00
2022-10-10T05:04:12.994Z,16.00
2022-10-10T05:05:13.264Z,16.00
2022-10-10T05:06:13.440Z,20.00
2022-10-10T05:07:13.657Z,24.00
2022-10-10T05:08:13.891Z,28.00
2022-10-10T05:09:14.117Z,32.00
2022-10-10T05:10:14.368Z,40.00
2022-10-10T05:11:14.579Z,44.00
2022-10-10T05:12:14.842Z,52.00
2022-10-10T05:13:15.070Z,60.00
2022-10-10T05:14:15.298Z,68.00
2022-10-10T05:15:15.533Z,76.00
2022-10-10T05:16:15.752Z,88.00
2022-10-10T05:17:16.007Z,100.00
2022-10-10T05:18:16.233Z,108.00
2022-10-10T05:19:16.466Z,124.00
2022-10-10T05:20:16.692Z,136.00
2022-10-10T05:21:16.910Z,152.00
2022-10-10T05:22:17.154Z,164.00
2022-10-10T05:23:17.370Z,180.00
2022-10-10T05:24:17.602Z,196.00
2022-10-10T05:25:17.815Z,216.00
2022-10-10T05:26:18.048Z,232.00
2022-10-10T05:27:18.332Z,252.00
2022-10-10T05:28:18.526Z,272.00
2022-10-10T05:29:18.624Z,296.00
2022-10-10T05:30:18.854Z,312.00
2022-10-10T05:31:19.076Z,336.00
2022-10-10T05:32:19.304Z,356.00
2022-10-10T05:33:19.525Z,376.00
2022-10-10T05:34:19.748Z,404.00
2022-10-10T05:35:19.993Z,424.00
2022-10-10T05:36:21.374Z,448.00
2022-10-10T05:37:28.006Z,472.00
2022-10-10T05:38:20.670Z,500.00
2022-10-10T05:39:20.913Z,520.00
2022-10-10T05:40:21.153Z,548.00
2022-10-10T05:41:21.404Z,576.00
2022-10-10T05:42:21.633Z,604.00
2022-10-10T05:43:21.905Z,628.00
2022-10-10T05:44:22.170Z,660.00
2022-10-10T05:45:22.417Z,684.00
2022-10-10T05:46:22.673Z,712.00
2022-10-10T05:47:27.434Z,744.00
2022-10-10T05:48:24.105Z,780.00
2022-10-10T05:49:30.402Z,812.00
2022-10-10T05:50:23.590Z,856.00
2022-10-10T05:51:23.815Z,900.00
2022-10-10T05:52:24.047Z,948.00
2022-10-10T05:53:24.271Z,996.00
2022-10-10T05:54:24.487Z,1028.00
2022-10-10T05:55:24.731Z,1072.00
2022-10-10T05:56:24.961Z,1116.00
2022-10-10T05:57:25.188Z,1160.00
2022-10-10T05:58:25.424Z,1180.00
2022-10-10T05:59:25.660Z,1192.00
2022-10-10T06:00:25.905Z,1236.00
2022-10-10T06:01:26.114Z,1276.00
2022-10-10T06:02:26.374Z,1300.00
2022-10-10T06:03:26.610Z,1312.00
2022-10-10T06:04:26.867Z,1320.00
2022-10-10T06:05:27.118Z,1356.00
2022-10-10T06:06:27.348Z,1372.00
2022-10-10T06:07:40.581Z,1380.00
2022-10-10T06:08:30.221Z,1392.00
2022-10-10T06:09:27.985Z,1400.00
2022-10-10T06:10:28.283Z,1432.00
2022-10-10T06:11:28.387Z,1484.00
2022-10-10T06:12:28.616Z,1532.00
2022-10-10T06:13:28.888Z,1552.00
2022-10-10T06:14:29.125Z,1540.00
2022-10-10T06:15:29.352Z,1216.00
2022-10-10T06:16:29.581Z,1112.00
2022-10-10T06:17:29.796Z,1120.00
2022-10-10T06:18:30.012Z,1132.00
2022-10-10T06:19:30.233Z,1152.00
2022-10-10T06:20:30.471Z,1164.00
2022-10-10T06:21:30.731Z,1192.00
2022-10-10T06:22:30.943Z,1220.00
2022-10-10T06:23:31.169Z,1252.00
2022-10-10T06:24:31.391Z,1280.00
2022-10-10T06:25:40.973Z,1316.00
2022-10-10T06:26:32.802Z,1352.00
2022-10-10T06:27:32.019Z,1396.00
2022-10-10T06:28:32.277Z,1444.00
2022-10-10T06:29:32.491Z,1516.00
2022-10-10T06:30:32.739Z,1628.00
2022-10-10T06:31:32.947Z,2092.00
2022-10-10T06:32:33.162Z,2648.00
2022-10-10T06:33:33.374Z,3040.00
2022-10-10T06:34:33.595Z,3304.00
2022-10-10T06:35:33.826Z,3436.00
2022-10-10T06:36:34.031Z,3484.00
2022-10-10T06:37:34.229Z,3576.00
2022-10-10T06:38:34.433Z,3928.00
2022-10-10T06:39:34.681Z,6196.00
2022-10-10T06:40:34.902Z,8020.00
2022-10-10T06:41:35.103Z,11488.00
2022-10-10T06:42:35.294Z,10080.00
2022-10-10T06:43:35.494Z,9520.00
2022-10-10T06:44:35.686Z,13140.00
2022-10-10T06:45:35.924Z,11328.00
2022-10-10T06:46:36.118Z,10684.00
2022-10-10T06:47:36.311Z,10340.00
2022-10-10T06:48:36.517Z,9860.00
2022-10-10T06:49:36.716Z,8340.00
2022-10-10T06:50:36.914Z,7464.00
2022-10-10T06:51:37.105Z,5384.00
2022-10-10T06:52:37.286Z,5396.00
2022-10-10T06:53:37.477Z,10576.00
2022-10-10T06:54:37.647Z,11360.00
2022-10-10T06:55:37.843Z,12000.00
2022-10-10T06:56:38.017Z,5228.00
2022-10-10T06:57:38.182Z,2800.00
2022-10-10T06:58:38.367Z,6028.00
2022-10-10T06:59:38.537Z,4792.00
2022-10-10T07:00:38.725Z,3048.00
2022-10-10T07:01:38.915Z,3208.00
2022-10-10T07:02:39.074Z,3468.00
2022-10-10T07:03:39.234Z,2804.00
2022-10-10T07:04:39.402Z,3552.00
2022-10-10T07:05:39.577Z,4472.00
2022-10-10T07:06:39.753Z,4428.00
2022-10-10T07:07:39.913Z,4040.00
2022-10-10T07:08:40.100Z,4272.00
2022-10-10T07:09:40.269Z,4312.00
2022-10-10T07:10:40.458Z,5140.00
2022-10-10T07:11:40.620Z,4632.00
2022-10-10T07:12:44.423Z,3892.00
2022-10-10T07:13:41.008Z,3488.00
2022-10-10T07:14:41.192Z,3868.00
2022-10-10T07:15:41.377Z,5824.00
2022-10-10T07:16:41.544Z,6928.00
2022-10-10T07:17:41.709Z,3772.00
2022-10-10T07:18:41.891Z,3732.00
2022-10-10T07:19:42.079Z,3848.00
2022-10-10T07:20:42.275Z,3916.00
2022-10-10T07:21:42.439Z,3824.00
2022-10-10T07:22:42.610Z,4040.00
2022-10-10T07:23:42.788Z,4148.00
2022-10-10T07:24:42.959Z,4456.00
2022-10-10T07:25:43.152Z,4732.00
2022-10-10T07:26:43.284Z,4936.00
2022-10-10T07:27:43.481Z,5068.00
2022-10-10T07:28:43.682Z,5212.00
2022-10-10T07:29:43.849Z,5552.00
2022-10-10T07:30:44.065Z,9072.00
2022-10-10T07:31:44.241Z,7532.00
2022-10-10T07:32:44.420Z,35520.00
2022-10-10T07:33:49.677Z,11584.00
2022-10-10T07:34:45.729Z,15200.00
2022-10-10T07:35:44.908Z,11328.00
2022-10-10T07:36:45.086Z,18688.00
2022-10-10T07:37:45.312Z,24768.00
2022-10-10T07:38:45.375Z,11060.00
2022-10-10T07:39:45.549Z,8232.00
2022-10-10T07:40:45.741Z,23136.00
2022-10-10T07:41:45.915Z,14784.00
2022-10-10T07:42:46.086Z,7496.00
2022-10-10T07:43:46.255Z,7760.00
2022-10-10T07:44:46.428Z,6600.00
2022-10-10T07:45:46.607Z,6796.00
2022-10-10T07:46:46.789Z,6928.00
2022-10-10T07:47:46.955Z,8424.00
2022-10-10T07:48:47.122Z,9308.00
2022-10-10T07:49:47.290Z,8440.00
2022-10-10T07:50:47.489Z,8712.00
2022-10-10T07:51:47.658Z,9672.00
2022-10-10T07:52:47.819Z,12904.00
2022-10-10T07:53:47.991Z,13348.00
2022-10-10T07:54:48.166Z,11552.00
2022-10-10T07:55:48.354Z,8416.00
2022-10-10T07:56:48.528Z,7676.00
2022-10-10T07:57:53.164Z,7340.00
2022-10-10T07:58:48.856Z,6736.00
2022-10-10T07:59:49.036Z,6540.00
2022-10-10T08:00:49.215Z,6764.00
2022-10-10T08:01:49.432Z,7332.00
2022-10-10T08:02:49.520Z,6680.00
2022-10-10T08:03:49.710Z,8268.00
2022-10-10T08:04:49.899Z,5436.00
2022-10-10T08:05:50.089Z,4820.00
2022-10-10T08:06:50.265Z,4544.00
2022-10-10T08:07:50.752Z,4552.00
2022-10-10T08:08:51.897Z,4764.00
2022-10-10T08:09:50.807Z,5992.00
2022-10-10T08:10:50.996Z,26496.00
2022-10-10T08:11:51.202Z,32640.00
2022-10-10T08:12:51.368Z,22304.00
2022-10-10T08:13:51.541Z,38272.00
2022-10-10T08:14:51.712Z,37664.00
2022-10-10T08:15:51.891Z,37152.00
2022-10-10T08:16:52.051Z,37184.00
2022-10-10T08:17:52.620Z,36896.00
2022-10-10T08:18:52.395Z,36320.00
2022-10-10T08:19:52.559Z,36992.00
2022-10-10T08:20:52.711Z,38304.00
2022-10-10T08:21:52.854Z,38688.00
2022-10-10T08:22:53.272Z,38304.00
2022-10-10T08:23:53.303Z,38080.00
2022-10-10T08:24:53.310Z,38336.00
2022-10-10T08:25:53.462Z,38624.00
2022-10-10T08:26:53.587Z,38720.00
2022-10-10T08:27:53.700Z,39168.00
2022-10-10T08:28:53.811Z,39648.00
2022-10-10T08:29:53.934Z,39136.00
2022-10-10T08:30:54.128Z,39296.00
2022-10-10T08:31:54.131Z,39776.00
2022-10-10T08:32:54.519Z,40704.00
2022-10-10T08:33:54.312Z,41344.00
2022-10-10T08:34:54.426Z,41632.00
2022-10-10T08:35:54.563Z,41088.00
2022-10-10T08:36:54.659Z,39584.00
2022-10-10T08:37:54.770Z,37728.00
2022-10-10T08:38:54.893Z,38528.00
2022-10-10T08:39:54.992Z,39424.00
2022-10-10T08:40:55.114Z,39232.00
2022-10-10T08:41:55.231Z,40192.00
2022-10-10T08:42:55.724Z,41600.00
2022-10-10T08:43:55.496Z,42432.00
2022-10-10T08:44:55.592Z,43680.00
2022-10-10T08:45:55.726Z,43168.00
2022-10-10T08:46:55.866Z,41728.00
2022-10-10T08:47:55.951Z,42336.00
2022-10-10T08:48:56.056Z,42112.00
2022-10-10T08:49:56.157Z,42432.00
2022-10-10T08:50:56.281Z,43232.00
2022-10-10T08:51:56.390Z,43520.00
2022-10-10T08:52:56.490Z,39680.00
2022-10-10T08:53:56.586Z,38624.00
2022-10-10T08:54:58.651Z,38880.00
2022-10-10T08:55:56.773Z,41120.00
2022-10-10T08:56:56.891Z,41728.00
2022-10-10T08:57:56.998Z,45536.00
2022-10-10T08:58:57.081Z,45984.00
2022-10-10T08:59:57.182Z,45952.00
2022-10-10T09:00:57.346Z,45728.00
2022-10-10T09:02:18.106Z,45344.00
2022-10-10T09:02:58.635Z,43072.00
2022-10-10T09:03:57.370Z,43264.00
2022-10-10T09:04:57.464Z,46528.00
2022-10-10T09:05:57.590Z,48000.00
2022-10-10T09:06:57.684Z,48896.00
2022-10-10T09:07:57.786Z,48992.00
2022-10-10T09:08:57.872Z,48096.00
2022-10-10T09:09:57.969Z,48736.00
2022-10-10T09:10:58.508Z,48992.00
2022-10-10T09:11:58.225Z,49344.00
2022-10-10T09:12:58.310Z,50016.00
2022-10-10T09:13:58.402Z,50368.00
2022-10-10T09:15:02.197Z,51008.00
2022-10-10T09:15:58.643Z,51712.00
2022-10-10T09:16:58.722Z,52000.00
2022-10-10T09:17:58.792Z,51808.00
2022-10-10T09:18:58.869Z,52128.00
2022-10-10T09:19:59.039Z,52288.00
2022-10-10T09:20:59.302Z,52896.00
2022-10-10T09:21:59.042Z,54016.00
2022-10-10T09:22:59.128Z,54656.00
2022-10-10T09:23:59.194Z,55232.00
2022-10-10T09:24:59.263Z,56704.00
2022-10-10T09:25:59.365Z,56160.00
2022-10-10T09:26:59.424Z,57760.00
2022-10-10T09:27:59.499Z,57280.00
2022-10-10T09:28:59.567Z,56576.00
2022-10-10T09:29:59.638Z,57056.00
2022-10-10T09:31:00.320Z,56160.00
2022-10-10T09:31:59.743Z,55904.00
2022-10-10T09:32:59.819Z,57952.00
2022-10-10T09:33:59.897Z,59008.00
2022-10-10T09:34:59.955Z,59232.00
2022-10-10T09:36:00.032Z,61152.00
2022-10-10T09:37:00.101Z,60928.00
2022-10-10T09:38:00.177Z,59104.00
2022-10-10T09:39:00.224Z,58560.00
2022-10-10T09:40:00.327Z,53952.00
2022-10-10T09:41:00.756Z,53216.00
2022-10-10T09:42:00.469Z,52768.00
2022-10-10T09:43:00.556Z,55936.00
2022-10-10T09:44:00.613Z,57280.00
2022-10-10T09:45:00.692Z,52032.00
2022-10-10T09:46:00.787Z,54336.00
2022-10-10T09:47:00.732Z,56416.00
2022-10-10T09:48:00.790Z,57056.00
2022-10-10T09:49:00.834Z,59360.00
2022-10-10T09:50:00.990Z,58272.00
2022-10-10T09:51:01.312Z,53472.00
2022-10-10T09:52:01.069Z,29376.00
2022-10-10T09:53:01.122Z,47296.00
2022-10-10T09:54:01.225Z,44992.00
2022-10-10T09:55:01.309Z,32096.00
2022-10-10T09:56:01.390Z,24704.00
2022-10-10T09:57:01.454Z,23776.00
2022-10-10T09:58:01.479Z,18656.00
2022-10-10T09:59:01.565Z,12528.00
2022-10-10T10:00:04.493Z,11964.00
2022-10-10T10:01:02.093Z,12356.00
2022-10-10T10:02:01.736Z,12504.00
2022-10-10T10:03:01.836Z,12312.00
2022-10-10T10:04:11.385Z,12112.00
2022-10-10T10:05:02.967Z,11520.00
2022-10-10T10:06:02.115Z,11064.00
2022-10-10T10:07:02.126Z,11476.00
2022-10-10T10:08:02.234Z,11512.00
2022-10-10T10:09:02.338Z,11320.00
2022-10-10T10:10:02.454Z,10424.00
2022-10-10T10:11:02.767Z,12168.00
2022-10-10T10:12:02.642Z,25184.00
2022-10-10T10:13:02.763Z,36992.00
2022-10-10T10:14:02.879Z,42176.00
2022-10-10T10:15:02.989Z,44992.00
2022-10-10T10:16:03.125Z,44896.00
2022-10-10T10:17:03.242Z,43616.00
2022-10-10T10:18:03.366Z,46176.00
2022-10-10T10:19:03.489Z,48288.00
2022-10-10T10:20:05.566Z,25056.00
2022-10-10T10:21:04.687Z,44288.00
2022-10-10T10:22:03.814Z,47936.00
2022-10-10T10:23:03.926Z,48672.00
2022-10-10T10:24:04.016Z,54272.00
2022-10-10T10:25:04.106Z,57216.00
2022-10-10T10:26:04.216Z,56704.00
2022-10-10T10:27:04.326Z,57152.00
2022-10-10T10:28:04.411Z,55776.00
2022-10-10T10:29:04.505Z,50592.00
2022-10-10T10:30:04.585Z,52928.00
2022-10-10T10:31:04.680Z,56000.00
2022-10-10T10:32:04.774Z,54048.00
2022-10-10T10:33:04.847Z,29856.00
2022-10-10T10:34:04.935Z,43200.00
2022-10-10T10:35:04.998Z,40544.00
2022-10-10T10:36:05.078Z,19168.00
2022-10-10T10:37:05.185Z,24416.00
2022-10-10T10:38:05.268Z,26144.00
2022-10-10T10:39:05.346Z,31648.00
2022-10-10T10:40:05.423Z,61248.00
2022-10-10T10:41:05.493Z,31456.00
2022-10-10T10:42:05.584Z,35392.00
2022-10-10T10:43:05.674Z,33600.00
2022-10-10T10:44:05.756Z,44992.00
2022-10-10T10:45:05.935Z,54688.00
2022-10-10T10:46:05.926Z,56544.00
2022-10-10T10:47:06.033Z,55232.00
2022-10-10T10:48:06.118Z,54880.00
2022-10-10T10:49:06.201Z,54400.00
2022-10-10T10:50:06.281Z,54112.00
2022-10-10T10:51:06.379Z,52352.00
2022-10-10T10:52:06.467Z,54400.00
2022-10-10T10:53:06.581Z,53536.00
2022-10-10T10:54:06.531Z,53024.00
2022-10-10T10:55:06.608Z,51552.00
2022-10-10T10:56:06.657Z,51072.00
2022-10-10T10:57:07.173Z,50752.00
2022-10-10T10:59:41.758Z,49696.00
2022-10-10T11:00:20.258Z,52416.00
2022-10-10T11:01:23.794Z,51488.00
2022-10-10T11:02:08.691Z,51872.00
2022-10-10T11:03:27.793Z,50368.00
2022-10-10T11:05:16.237Z,52512.00
2022-10-10T11:05:21.993Z,52480.00
2022-10-10T11:06:07.957Z,54400.00
2022-10-10T11:07:18.578Z,55616.00
2022-10-10T11:08:07.909Z,54336.00
2022-10-10T11:09:11.004Z,54784.00
2022-10-10T11:10:08.034Z,55008.00
2022-10-10T11:11:07.095Z,54720.00
2022-10-10T11:12:07.172Z,53600.00
2022-10-10T11:13:07.252Z,52832.00
2022-10-10T11:14:07.335Z,52256.00
2022-10-10T11:15:07.395Z,52448.00
2022-10-10T11:16:10.887Z,51680.00
2022-10-10T11:17:08.473Z,52352.00
2022-10-10T11:18:07.559Z,53312.00
2022-10-10T11:19:07.618Z,53632.00
2022-10-10T11:20:07.683Z,54656.00
2022-10-10T11:21:07.728Z,55168.00
2022-10-10T11:22:07.786Z,53920.00
2022-10-10T11:23:09.205Z,53536.00
2022-10-10T11:24:07.938Z,51136.00
2022-10-10T11:25:07.902Z,53472.00
2022-10-10T11:26:07.943Z,52672.00
2022-10-10T11:27:08.011Z,53376.00
2022-10-10T11:28:08.113Z,54016.00
2022-10-10T11:29:08.036Z,38240.00
2022-10-10T11:30:08.094Z,36960.00
2022-10-10T11:31:08.155Z,54336.00
2022-10-10T11:32:08.237Z,56000.00
2022-10-10T11:33:08.275Z,55392.00
2022-10-10T11:34:08.321Z,56416.00
2022-10-10T11:35:08.393Z,56608.00
2022-10-10T11:36:08.630Z,55648.00
2022-10-10T11:37:08.433Z,56480.00
2022-10-10T11:38:08.502Z,54720.00
2022-10-10T11:39:11.579Z,54080.00
2022-10-10T11:40:09.550Z,53440.00
2022-10-10T11:41:08.706Z,52128.00
2022-10-10T11:42:08.611Z,52480.00
2022-10-10T11:43:08.657Z,51232.00
2022-10-10T11:44:08.713Z,50976.00
2022-10-10T11:45:08.771Z,50592.00
2022-10-10T11:46:09.493Z,50944.00
2022-10-10T11:47:08.853Z,50976.00
2022-10-10T11:48:08.899Z,48640.00
2022-10-10T11:49:08.993Z,49504.00
2022-10-10T11:50:16.255Z,48096.00
2022-10-10T11:51:11.761Z,49120.00
2022-10-10T11:52:32.536Z,47392.00
2022-10-10T11:53:09.986Z,45920.00
2022-10-10T11:54:09.206Z,46432.00
2022-10-10T11:55:09.054Z,46528.00
2022-10-10T11:56:09.235Z,48480.00
2022-10-10T11:57:12.771Z,48864.00
2022-10-10T11:58:09.238Z,48096.00
2022-10-10T11:59:09.283Z,47328.00
2022-10-10T12:00:09.341Z,45024.00
2022-10-10T12:01:09.416Z,45408.00
2022-10-10T12:02:10.547Z,47776.00
2022-10-10T12:03:09.479Z,47808.00
2022-10-10T12:04:09.546Z,48352.00
2022-10-10T12:05:09.622Z,48448.00
2022-10-10T12:06:09.710Z,47936.00
2022-10-10T12:07:09.779Z,48960.00
2022-10-10T12:08:11.501Z,49024.00
2022-10-10T12:09:09.853Z,48256.00
2022-10-10T12:10:09.951Z,47456.00
2022-10-10T12:11:10.246Z,47136.00
2022-10-10T12:12:10.043Z,46144.00
2022-10-10T12:13:10.050Z,46400.00
2022-10-10T12:14:10.027Z,44800.00
2022-10-10T12:15:10.104Z,44256.00
2022-10-10T12:16:10.235Z,42496.00
2022-10-10T12:17:10.301Z,42848.00
2022-10-10T12:18:10.243Z,41600.00
2022-10-10T12:19:10.312Z,44320.00
2022-10-10T12:20:10.411Z,45280.00
2022-10-10T12:21:10.459Z,44832.00
2022-10-10T12:22:10.508Z,45408.00
2022-10-10T12:23:10.571Z,43168.00
2022-10-10T12:24:10.717Z,43648.00
2022-10-10T12:25:10.655Z,44032.00
2022-10-10T12:26:10.778Z,44256.00
2022-10-10T12:27:10.748Z,44512.00
2022-10-10T12:28:10.845Z,43712.00
2022-10-10T12:29:10.908Z,43744.00